sensor_id;sensor_type;location;lat;lon;timestamp;P1;durP1;ratioP1;P2;durP2;ratioP2
41572;SDS011;27286;47.870;19.006;2023-02-11T00:00:04;47.58;;;29.23;;
41572;SDS011;27286;47.870;19.006;2023-02-11T00:02:31;50.03;;;27.75;;
41572;SDS011;27286;47.870;19.006;2023-02-11T00:04:57;45.20;;;27.50;;
41572;SDS011;27286;47.870;19.006;2023-02-11T00:07:27;43.10;;;26.15;;
41572;SDS011;27286;47.870;19.006;2023-02-11T00:09:53;48.42;;;25.73;;
41572;SDS011;27286;47.870;19.006;2023-02-11T00:12:18;47.90;;;28.13;;
41572;SDS011;27286;47.870;19.006;2023-02-11T00:14:44;44.92;;;26.48;;
41572;SDS011;27286;47.870;19.006;2023-02-11T00:17:09;57.72;;;28.45;;
41572;SDS011;27286;47.870;19.006;2023-02-11T00:19:35;50.78;;;28.75;;
41572;SDS011;27286;47.870;19.006;2023-02-11T00:22:00;49.03;;;30.13;;
41572;SDS011;27286;47.870;19.006;2023-02-11T00:24:26;48.28;;;26.70;;
41572;SDS011;27286;47.870;19.006;2023-02-11T00:26:51;43.55;;;26.15;;
41572;SDS011;27286;47.870;19.006;2023-02-11T00:29:16;44.10;;;26.27;;
41572;SDS011;27286;47.870;19.006;2023-02-11T00:31:42;46.50;;;27.10;;
41572;SDS011;27286;47.870;19.006;2023-02-11T00:34:07;44.25;;;26.58;;
41572;SDS011;27286;47.870;19.006;2023-02-11T00:36:33;47.58;;;26.70;;
41572;SDS011;27286;47.870;19.006;2023-02-11T00:38:58;44.22;;;25.10;;
41572;SDS011;27286;47.870;19.006;2023-02-11T00:41:24;42.00;;;27.02;;
41572;SDS011;27286;47.870;19.006;2023-02-11T00:43:50;42.60;;;26.35;;
41572;SDS011;27286;47.870;19.006;2023-02-11T00:46:16;45.95;;;26.17;;
41572;SDS011;27286;47.870;19.006;2023-02-11T00:48:41;40.88;;;25.17;;
41572;SDS011;27286;47.870;19.006;2023-02-11T00:51:07;39.55;;;25.52;;
41572;SDS011;27286;47.870;19.006;2023-02-11T00:53:33;42.15;;;25.52;;
41572;SDS011;27286;47.870;19.006;2023-02-11T00:55:59;43.42;;;25.55;;
41572;SDS011;27286;47.870;19.006;2023-02-11T00:58:25;44.20;;;25.25;;
41572;SDS011;27286;47.870;19.006;2023-02-11T01:00:52;40.65;;;24.80;;
41572;SDS011;27286;47.870;19.006;2023-02-11T01:03:19;42.75;;;26.63;;
41572;SDS011;27286;47.870;19.006;2023-02-11T01:05:44;43.08;;;24.92;;
41572;SDS011;27286;47.870;19.006;2023-02-11T01:08:10;42.50;;;25.15;;
41572;SDS011;27286;47.870;19.006;2023-02-11T01:10:36;41.25;;;22.58;;
41572;SDS011;27286;47.870;19.006;2023-02-11T01:13:02;40.03;;;24.38;;
41572;SDS011;27286;47.870;19.006;2023-02-11T01:15:27;42.80;;;24.08;;
41572;SDS011;27286;47.870;19.006;2023-02-11T01:17:53;41.88;;;22.67;;
41572;SDS011;27286;47.870;19.006;2023-02-11T01:20:20;35.03;;;22.40;;
41572;SDS011;27286;47.870;19.006;2023-02-11T01:22:47;39.40;;;23.20;;
41572;SDS011;27286;47.870;19.006;2023-02-11T01:25:13;38.05;;;23.63;;
41572;SDS011;27286;47.870;19.006;2023-02-11T01:27:39;43.45;;;25.48;;
41572;SDS011;27286;47.870;19.006;2023-02-11T01:30:05;48.22;;;25.20;;
41572;SDS011;27286;47.870;19.006;2023-02-11T01:32:32;43.65;;;26.52;;
41572;SDS011;27286;47.870;19.006;2023-02-11T01:34:58;42.63;;;24.88;;
41572;SDS011;27286;47.870;19.006;2023-02-11T01:37:23;42.97;;;26.00;;
41572;SDS011;27286;47.870;19.006;2023-02-11T01:39:49;43.33;;;25.52;;
41572;SDS011;27286;47.870;19.006;2023-02-11T01:42:15;38.75;;;23.95;;
41572;SDS011;27286;47.870;19.006;2023-02-11T01:44:42;46.22;;;27.05;;
41572;SDS011;27286;47.870;19.006;2023-02-11T01:47:08;44.65;;;26.85;;
41572;SDS011;27286;47.870;19.006;2023-02-11T01:49:35;45.92;;;27.80;;
41572;SDS011;27286;47.870;19.006;2023-02-11T01:54:42;45.57;;;27.47;;
41572;SDS011;27286;47.870;19.006;2023-02-11T01:57:29;42.22;;;26.05;;
41572;SDS011;27286;47.870;19.006;2023-02-11T02:00:04;42.53;;;25.83;;
41572;SDS011;27286;47.870;19.006;2023-02-11T02:10:25;49.67;;;26.38;;
41572;SDS011;27286;47.870;19.006;2023-02-11T02:12:53;50.58;;;26.48;;
41572;SDS011;27286;47.870;19.006;2023-02-11T02:35:23;39.85;;;24.02;;
41572;SDS011;27286;47.870;19.006;2023-02-11T02:41:09;41.75;;;24.90;;
41572;SDS011;27286;47.870;19.006;2023-02-11T02:43:14;51.45;;;25.63;;
41572;SDS011;27286;47.870;19.006;2023-02-11T02:45:41;43.53;;;24.95;;
41572;SDS011;27286;47.870;19.006;2023-02-11T02:48:20;48.13;;;25.17;;
41572;SDS011;27286;47.870;19.006;2023-02-11T02:50:52;45.65;;;25.13;;
41572;SDS011;27286;47.870;19.006;2023-02-11T02:59:34;41.72;;;23.55;;
41572;SDS011;27286;47.870;19.006;2023-02-11T03:08:36;48.88;;;26.38;;
41572;SDS011;27286;47.870;19.006;2023-02-11T03:11:08;58.10;;;31.50;;
41572;SDS011;27286;47.870;19.006;2023-02-11T03:13:35;48.33;;;29.90;;
41572;SDS011;27286;47.870;19.006;2023-02-11T03:16:14;57.72;;;32.85;;
41572;SDS011;27286;47.870;19.006;2023-02-11T03:18:45;56.20;;;30.20;;
41572;SDS011;27286;47.870;19.006;2023-02-11T03:21:14;54.90;;;30.88;;
41572;SDS011;27286;47.870;19.006;2023-02-11T03:23:56;53.55;;;30.85;;
41572;SDS011;27286;47.870;19.006;2023-02-11T03:26:27;48.72;;;29.13;;
41572;SDS011;27286;47.870;19.006;2023-02-11T03:29:20;41.47;;;24.73;;
41572;SDS011;27286;47.870;19.006;2023-02-11T03:34:33;44.90;;;25.60;;
41572;SDS011;27286;47.870;19.006;2023-02-11T03:37:01;43.60;;;23.55;;
41572;SDS011;27286;47.870;19.006;2023-02-11T03:39:34;42.53;;;23.48;;
41572;SDS011;27286;47.870;19.006;2023-02-11T03:42:03;42.72;;;23.65;;
41572;SDS011;27286;47.870;19.006;2023-02-11T03:44:33;38.08;;;22.50;;
41572;SDS011;27286;47.870;19.006;2023-02-11T03:47:06;40.35;;;22.25;;
41572;SDS011;27286;47.870;19.006;2023-02-11T03:49:34;46.33;;;26.25;;
41572;SDS011;27286;47.870;19.006;2023-02-11T03:52:03;48.85;;;27.00;;
41572;SDS011;27286;47.870;19.006;2023-02-11T03:54:31;46.20;;;26.98;;
41572;SDS011;27286;47.870;19.006;2023-02-11T03:56:58;54.65;;;29.75;;
41572;SDS011;27286;47.870;19.006;2023-02-11T03:59:25;53.22;;;30.50;;
41572;SDS011;27286;47.870;19.006;2023-02-11T04:01:51;60.40;;;34.38;;
41572;SDS011;27286;47.870;19.006;2023-02-11T04:04:17;53.72;;;31.13;;
41572;SDS011;27286;47.870;19.006;2023-02-11T04:06:42;58.72;;;30.75;;
41572;SDS011;27286;47.870;19.006;2023-02-11T04:09:08;48.33;;;29.05;;
41572;SDS011;27286;47.870;19.006;2023-02-11T04:11:35;54.67;;;30.73;;
41572;SDS011;27286;47.870;19.006;2023-02-11T04:14:00;54.40;;;30.45;;
41572;SDS011;27286;47.870;19.006;2023-02-11T04:16:26;48.90;;;28.15;;
41572;SDS011;27286;47.870;19.006;2023-02-11T04:18:52;57.47;;;30.73;;
41572;SDS011;27286;47.870;19.006;2023-02-11T04:21:17;57.40;;;32.30;;
41572;SDS011;27286;47.870;19.006;2023-02-11T04:23:42;63.50;;;29.85;;
41572;SDS011;27286;47.870;19.006;2023-02-11T04:26:08;55.83;;;32.33;;
41572;SDS011;27286;47.870;19.006;2023-02-11T04:28:33;53.47;;;29.92;;
41572;SDS011;27286;47.870;19.006;2023-02-11T04:31:00;46.30;;;26.65;;
41572;SDS011;27286;47.870;19.006;2023-02-11T04:33:25;47.00;;;28.00;;
41572;SDS011;27286;47.870;19.006;2023-02-11T04:35:51;47.63;;;27.35;;
41572;SDS011;27286;47.870;19.006;2023-02-11T04:38:16;47.65;;;28.15;;
41572;SDS011;27286;47.870;19.006;2023-02-11T04:40:42;44.50;;;25.20;;
41572;SDS011;27286;47.870;19.006;2023-02-11T04:43:07;55.88;;;28.08;;
41572;SDS011;27286;47.870;19.006;2023-02-11T04:45:32;47.03;;;26.20;;
41572;SDS011;27286;47.870;19.006;2023-02-11T04:47:58;42.38;;;24.80;;
41572;SDS011;27286;47.870;19.006;2023-02-11T04:50:25;43.78;;;24.10;;
41572;SDS011;27286;47.870;19.006;2023-02-11T04:52:50;43.08;;;23.58;;
41572;SDS011;27286;47.870;19.006;2023-02-11T04:55:16;42.80;;;24.23;;
41572;SDS011;27286;47.870;19.006;2023-02-11T04:57:41;43.20;;;24.10;;
41572;SDS011;27286;47.870;19.006;2023-02-11T05:00:07;42.00;;;23.98;;
41572;SDS011;27286;47.870;19.006;2023-02-11T05:02:34;38.03;;;21.08;;
41572;SDS011;27286;47.870;19.006;2023-02-11T05:04:59;46.08;;;22.65;;
41572;SDS011;27286;47.870;19.006;2023-02-11T05:07:25;41.25;;;23.60;;
41572;SDS011;27286;47.870;19.006;2023-02-11T05:09:50;41.10;;;23.35;;
41572;SDS011;27286;47.870;19.006;2023-02-11T05:12:16;46.53;;;23.52;;
41572;SDS011;27286;47.870;19.006;2023-02-11T05:14:41;40.53;;;24.15;;
41572;SDS011;27286;47.870;19.006;2023-02-11T05:17:06;43.13;;;22.02;;
41572;SDS011;27286;47.870;19.006;2023-02-11T05:19:32;42.65;;;22.40;;
41572;SDS011;27286;47.870;19.006;2023-02-11T05:21:57;44.05;;;22.90;;
41572;SDS011;27286;47.870;19.006;2023-02-11T05:24:23;40.75;;;23.08;;
41572;SDS011;27286;47.870;19.006;2023-02-11T05:26:48;40.70;;;23.33;;
41572;SDS011;27286;47.870;19.006;2023-02-11T05:29:14;43.28;;;24.05;;
41572;SDS011;27286;47.870;19.006;2023-02-11T05:31:39;47.22;;;24.95;;
41572;SDS011;27286;47.870;19.006;2023-02-11T05:34:05;73.07;;;30.92;;
41572;SDS011;27286;47.870;19.006;2023-02-11T05:36:30;63.85;;;32.25;;
41572;SDS011;27286;47.870;19.006;2023-02-11T05:38:56;66.90;;;32.35;;
41572;SDS011;27286;47.870;19.006;2023-02-11T05:41:21;54.83;;;31.08;;
41572;SDS011;27286;47.870;19.006;2023-02-11T05:43:47;52.22;;;27.33;;
41572;SDS011;27286;47.870;19.006;2023-02-11T05:46:16;48.75;;;27.75;;
41572;SDS011;27286;47.870;19.006;2023-02-11T05:48:42;40.70;;;22.02;;
41572;SDS011;27286;47.870;19.006;2023-02-11T05:51:08;46.05;;;24.20;;
41572;SDS011;27286;47.870;19.006;2023-02-11T05:53:34;36.70;;;21.20;;
41572;SDS011;27286;47.870;19.006;2023-02-11T05:55:59;36.38;;;20.10;;
41572;SDS011;27286;47.870;19.006;2023-02-11T05:58:25;41.72;;;19.63;;
41572;SDS011;27286;47.870;19.006;2023-02-11T06:00:50;42.80;;;22.98;;
41572;SDS011;27286;47.870;19.006;2023-02-11T06:03:16;37.55;;;20.55;;
41572;SDS011;27286;47.870;19.006;2023-02-11T06:05:41;36.85;;;20.23;;
41572;SDS011;27286;47.870;19.006;2023-02-11T06:08:08;42.65;;;21.80;;
41572;SDS011;27286;47.870;19.006;2023-02-11T06:10:33;46.53;;;22.80;;
41572;SDS011;27286;47.870;19.006;2023-02-11T06:12:59;42.80;;;24.45;;
41572;SDS011;27286;47.870;19.006;2023-02-11T06:15:26;52.95;;;26.23;;
41572;SDS011;27286;47.870;19.006;2023-02-11T06:17:51;51.65;;;25.05;;
41572;SDS011;27286;47.870;19.006;2023-02-11T06:20:17;40.63;;;22.17;;
41572;SDS011;27286;47.870;19.006;2023-02-11T06:22:42;41.13;;;24.35;;
41572;SDS011;27286;47.870;19.006;2023-02-11T06:25:08;37.55;;;22.38;;
41572;SDS011;27286;47.870;19.006;2023-02-11T06:27:35;51.70;;;24.90;;
41572;SDS011;27286;47.870;19.006;2023-02-11T06:30:01;41.17;;;22.15;;
41572;SDS011;27286;47.870;19.006;2023-02-11T06:32:28;45.47;;;23.10;;
41572;SDS011;27286;47.870;19.006;2023-02-11T06:34:53;37.97;;;22.13;;
41572;SDS011;27286;47.870;19.006;2023-02-11T06:37:19;45.28;;;24.17;;
41572;SDS011;27286;47.870;19.006;2023-02-11T06:39:44;39.72;;;21.45;;
41572;SDS011;27286;47.870;19.006;2023-02-11T06:42:10;32.05;;;18.98;;
41572;SDS011;27286;47.870;19.006;2023-02-11T06:44:35;59.85;;;33.25;;
41572;SDS011;27286;47.870;19.006;2023-02-11T06:47:01;68.20;;;39.55;;
41572;SDS011;27286;47.870;19.006;2023-02-11T06:49:26;66.65;;;37.45;;
41572;SDS011;27286;47.870;19.006;2023-02-11T06:51:51;54.83;;;28.98;;
41572;SDS011;27286;47.870;19.006;2023-02-11T06:54:17;42.10;;;23.35;;
41572;SDS011;27286;47.870;19.006;2023-02-11T06:56:42;38.20;;;21.42;;
41572;SDS011;27286;47.870;19.006;2023-02-11T06:59:09;44.03;;;23.02;;
41572;SDS011;27286;47.870;19.006;2023-02-11T07:01:39;57.08;;;23.73;;
41572;SDS011;27286;47.870;19.006;2023-02-11T07:04:04;43.90;;;25.10;;
41572;SDS011;27286;47.870;19.006;2023-02-11T07:06:30;39.10;;;21.77;;
41572;SDS011;27286;47.870;19.006;2023-02-11T07:08:56;36.75;;;21.67;;
41572;SDS011;27286;47.870;19.006;2023-02-11T07:11:23;38.15;;;20.65;;
41572;SDS011;27286;47.870;19.006;2023-02-11T07:13:51;35.45;;;20.77;;
41572;SDS011;27286;47.870;19.006;2023-02-11T07:16:18;40.17;;;20.52;;
41572;SDS011;27286;47.870;19.006;2023-02-11T07:18:45;41.60;;;21.80;;
41572;SDS011;27286;47.870;19.006;2023-02-11T07:21:12;37.47;;;22.50;;
41572;SDS011;27286;47.870;19.006;2023-02-11T07:23:39;40.88;;;22.35;;
41572;SDS011;27286;47.870;19.006;2023-02-11T07:26:06;38.63;;;20.20;;
41572;SDS011;27286;47.870;19.006;2023-02-11T07:28:34;43.63;;;22.27;;
41572;SDS011;27286;47.870;19.006;2023-02-11T07:31:10;39.65;;;22.48;;
41572;SDS011;27286;47.870;19.006;2023-02-11T07:33:38;36.88;;;21.48;;
41572;SDS011;27286;47.870;19.006;2023-02-11T07:36:03;43.38;;;22.75;;
41572;SDS011;27286;47.870;19.006;2023-02-11T07:38:30;36.03;;;20.83;;
41572;SDS011;27286;47.870;19.006;2023-02-11T07:41:04;37.97;;;22.63;;
41572;SDS011;27286;47.870;19.006;2023-02-11T07:43:34;38.10;;;21.90;;
41572;SDS011;27286;47.870;19.006;2023-02-11T07:46:04;36.00;;;21.70;;
41572;SDS011;27286;47.870;19.006;2023-02-11T07:48:30;37.33;;;19.65;;
41572;SDS011;27286;47.870;19.006;2023-02-11T07:51:03;36.88;;;21.02;;
41572;SDS011;27286;47.870;19.006;2023-02-11T07:53:33;37.53;;;21.45;;
41572;SDS011;27286;47.870;19.006;2023-02-11T07:55:58;37.33;;;21.35;;
41572;SDS011;27286;47.870;19.006;2023-02-11T07:58:24;39.72;;;20.90;;
41572;SDS011;27286;47.870;19.006;2023-02-11T08:00:49;42.00;;;21.67;;
41572;SDS011;27286;47.870;19.006;2023-02-11T08:03:14;38.38;;;21.27;;
41572;SDS011;27286;47.870;19.006;2023-02-11T08:05:40;37.22;;;21.92;;
41572;SDS011;27286;47.870;19.006;2023-02-11T08:08:06;42.25;;;21.42;;
41572;SDS011;27286;47.870;19.006;2023-02-11T08:10:31;36.13;;;21.33;;
41572;SDS011;27286;47.870;19.006;2023-02-11T08:12:57;42.85;;;23.10;;
41572;SDS011;27286;47.870;19.006;2023-02-11T08:15:22;41.00;;;19.40;;
41572;SDS011;27286;47.870;19.006;2023-02-11T08:17:48;34.53;;;20.92;;
41572;SDS011;27286;47.870;19.006;2023-02-11T08:20:13;39.55;;;20.40;;
41572;SDS011;27286;47.870;19.006;2023-02-11T08:22:39;41.58;;;21.13;;
41572;SDS011;27286;47.870;19.006;2023-02-11T08:25:05;33.72;;;20.25;;
41572;SDS011;27286;47.870;19.006;2023-02-11T08:27:30;33.55;;;20.92;;
41572;SDS011;27286;47.870;19.006;2023-02-11T08:29:55;33.05;;;18.42;;
41572;SDS011;27286;47.870;19.006;2023-02-11T08:32:23;33.33;;;19.80;;
41572;SDS011;27286;47.870;19.006;2023-02-11T08:34:52;36.67;;;23.33;;
41572;SDS011;27286;47.870;19.006;2023-02-11T08:37:18;39.08;;;22.63;;
41572;SDS011;27286;47.870;19.006;2023-02-11T08:39:43;32.05;;;18.95;;
41572;SDS011;27286;47.870;19.006;2023-02-11T08:42:11;38.22;;;23.02;;
41572;SDS011;27286;47.870;19.006;2023-02-11T08:44:37;33.80;;;19.20;;
41572;SDS011;27286;47.870;19.006;2023-02-11T08:47:03;32.58;;;19.83;;
41572;SDS011;27286;47.870;19.006;2023-02-11T08:49:29;34.95;;;20.42;;
41572;SDS011;27286;47.870;19.006;2023-02-11T08:51:55;39.95;;;20.10;;
41572;SDS011;27286;47.870;19.006;2023-02-11T08:54:23;43.03;;;23.67;;
41572;SDS011;27286;47.870;19.006;2023-02-11T08:56:49;39.67;;;23.88;;
41572;SDS011;27286;47.870;19.006;2023-02-11T08:59:16;41.58;;;20.30;;
41572;SDS011;27286;47.870;19.006;2023-02-11T09:01:41;45.58;;;25.13;;
41572;SDS011;27286;47.870;19.006;2023-02-11T09:04:08;49.65;;;29.65;;
41572;SDS011;27286;47.870;19.006;2023-02-11T09:06:34;55.22;;;28.55;;
41572;SDS011;27286;47.870;19.006;2023-02-11T09:08:59;43.45;;;25.85;;
41572;SDS011;27286;47.870;19.006;2023-02-11T09:11:30;43.78;;;26.58;;
41572;SDS011;27286;47.870;19.006;2023-02-11T09:13:57;53.42;;;27.08;;
41572;SDS011;27286;47.870;19.006;2023-02-11T09:16:24;40.58;;;25.48;;
41572;SDS011;27286;47.870;19.006;2023-02-11T09:18:51;38.40;;;21.48;;
41572;SDS011;27286;47.870;19.006;2023-02-11T09:21:17;41.17;;;25.33;;
41572;SDS011;27286;47.870;19.006;2023-02-11T09:23:43;36.47;;;24.08;;
41572;SDS011;27286;47.870;19.006;2023-02-11T09:26:16;43.55;;;25.30;;
41572;SDS011;27286;47.870;19.006;2023-02-11T09:28:46;50.28;;;29.42;;
41572;SDS011;27286;47.870;19.006;2023-02-11T09:31:14;54.65;;;30.15;;
41572;SDS011;27286;47.870;19.006;2023-02-11T09:33:41;40.65;;;28.40;;
41572;SDS011;27286;47.870;19.006;2023-02-11T09:36:12;43.95;;;27.30;;
41572;SDS011;27286;47.870;19.006;2023-02-11T09:38:40;44.22;;;29.05;;
41572;SDS011;27286;47.870;19.006;2023-02-11T09:41:11;44.42;;;26.88;;
41572;SDS011;27286;47.870;19.006;2023-02-11T09:43:43;39.38;;;26.33;;
41572;SDS011;27286;47.870;19.006;2023-02-11T09:46:12;46.25;;;25.83;;
41572;SDS011;27286;47.870;19.006;2023-02-11T09:48:39;47.40;;;26.20;;
41572;SDS011;27286;47.870;19.006;2023-02-11T09:51:12;44.95;;;27.27;;
41572;SDS011;27286;47.870;19.006;2023-02-11T09:53:44;38.00;;;25.17;;
41572;SDS011;27286;47.870;19.006;2023-02-11T09:56:15;41.40;;;27.48;;
41572;SDS011;27286;47.870;19.006;2023-02-11T09:58:43;35.67;;;23.58;;
41572;SDS011;27286;47.870;19.006;2023-02-11T10:07:08;44.13;;;26.75;;
41572;SDS011;27286;47.870;19.006;2023-02-11T10:09:55;36.00;;;26.15;;
41572;SDS011;27286;47.870;19.006;2023-02-11T10:12:43;36.25;;;25.88;;
41572;SDS011;27286;47.870;19.006;2023-02-11T10:15:13;35.78;;;26.00;;
41572;SDS011;27286;47.870;19.006;2023-02-11T10:23:30;33.83;;;23.60;;
41572;SDS011;27286;47.870;19.006;2023-02-11T10:25:59;38.05;;;26.60;;
41572;SDS011;27286;47.870;19.006;2023-02-11T10:28:30;31.70;;;23.45;;
41572;SDS011;27286;47.870;19.006;2023-02-11T10:31:08;33.90;;;22.48;;
41572;SDS011;27286;47.870;19.006;2023-02-11T10:36:15;34.22;;;23.95;;
41572;SDS011;27286;47.870;19.006;2023-02-11T10:38:42;34.85;;;25.42;;
41572;SDS011;27286;47.870;19.006;2023-02-11T10:41:09;33.35;;;24.88;;
41572;SDS011;27286;47.870;19.006;2023-02-11T10:43:41;37.60;;;25.02;;
41572;SDS011;27286;47.870;19.006;2023-02-11T10:46:09;33.97;;;23.90;;
41572;SDS011;27286;47.870;19.006;2023-02-11T10:48:43;28.25;;;22.63;;
41572;SDS011;27286;47.870;19.006;2023-02-11T10:53:43;33.17;;;24.58;;
41572;SDS011;27286;47.870;19.006;2023-02-11T10:56:10;37.72;;;26.02;;
41572;SDS011;27286;47.870;19.006;2023-02-11T10:58:44;32.38;;;24.73;;
41572;SDS011;27286;47.870;19.006;2023-02-11T11:01:17;36.13;;;26.08;;
41572;SDS011;27286;47.870;19.006;2023-02-11T11:03:47;38.28;;;24.42;;
41572;SDS011;27286;47.870;19.006;2023-02-11T11:06:15;38.47;;;26.10;;
41572;SDS011;27286;47.870;19.006;2023-02-11T11:08:51;30.58;;;22.23;;
41572;SDS011;27286;47.870;19.006;2023-02-11T11:11:18;34.17;;;23.20;;
41572;SDS011;27286;47.870;19.006;2023-02-11T11:16:22;45.35;;;30.83;;
41572;SDS011;27286;47.870;19.006;2023-02-11T11:19:31;44.22;;;28.45;;
41572;SDS011;27286;47.870;19.006;2023-02-11T11:21:53;32.88;;;22.58;;
41572;SDS011;27286;47.870;19.006;2023-02-11T11:26:57;40.05;;;27.17;;
41572;SDS011;27286;47.870;19.006;2023-02-11T11:29:32;46.55;;;30.92;;
41572;SDS011;27286;47.870;19.006;2023-02-11T11:32:02;34.22;;;23.77;;
41572;SDS011;27286;47.870;19.006;2023-02-11T11:34:41;41.72;;;28.20;;
41572;SDS011;27286;47.870;19.006;2023-02-11T11:39:43;38.15;;;26.08;;
41572;SDS011;27286;47.870;19.006;2023-02-11T11:42:24;41.28;;;28.02;;
41572;SDS011;27286;47.870;19.006;2023-02-11T11:44:56;39.58;;;26.13;;
41572;SDS011;27286;47.870;19.006;2023-02-11T11:47:28;40.85;;;27.88;;
41572;SDS011;27286;47.870;19.006;2023-02-11T11:50:21;45.13;;;30.13;;
41572;SDS011;27286;47.870;19.006;2023-02-11T11:53:03;43.00;;;28.80;;
41572;SDS011;27286;47.870;19.006;2023-02-11T11:55:37;38.30;;;28.17;;
41572;SDS011;27286;47.870;19.006;2023-02-11T11:58:03;44.00;;;26.98;;
41572;SDS011;27286;47.870;19.006;2023-02-11T12:00:38;44.45;;;30.20;;
41572;SDS011;27286;47.870;19.006;2023-02-11T12:03:26;34.20;;;23.45;;
41572;SDS011;27286;47.870;19.006;2023-02-11T12:08:36;47.03;;;33.05;;
41572;SDS011;27286;47.870;19.006;2023-02-11T12:14:29;34.92;;;24.50;;
41572;SDS011;27286;47.870;19.006;2023-02-11T12:25:33;32.97;;;26.52;;
41572;SDS011;27286;47.870;19.006;2023-02-11T12:30:49;31.33;;;24.73;;
41572;SDS011;27286;47.870;19.006;2023-02-11T12:36:01;32.35;;;26.70;;
41572;SDS011;27286;47.870;19.006;2023-02-11T12:39:00;33.05;;;26.80;;
41572;SDS011;27286;47.870;19.006;2023-02-11T12:42:03;34.30;;;28.08;;
41572;SDS011;27286;47.870;19.006;2023-02-11T12:53:47;45.63;;;25.60;;
41572;SDS011;27286;47.870;19.006;2023-02-11T12:56:28;45.58;;;24.17;;
41572;SDS011;27286;47.870;19.006;2023-02-11T12:58:55;33.65;;;25.95;;
41572;SDS011;27286;47.870;19.006;2023-02-11T13:01:28;29.40;;;24.17;;
41572;SDS011;27286;47.870;19.006;2023-02-11T13:06:43;31.88;;;25.08;;
41572;SDS011;27286;47.870;19.006;2023-02-11T13:09:15;33.03;;;26.17;;
41572;SDS011;27286;47.870;19.006;2023-02-11T13:11:48;29.58;;;23.42;;
41572;SDS011;27286;47.870;19.006;2023-02-11T13:14:37;39.75;;;24.10;;
41572;SDS011;27286;47.870;19.006;2023-02-11T13:17:09;33.20;;;24.92;;
41572;SDS011;27286;47.870;19.006;2023-02-11T13:19:47;36.63;;;23.67;;
41572;SDS011;27286;47.870;19.006;2023-02-11T13:22:19;34.45;;;26.52;;
41572;SDS011;27286;47.870;19.006;2023-02-11T13:27:54;30.25;;;22.73;;
41572;SDS011;27286;47.870;19.006;2023-02-11T13:30:33;29.75;;;21.50;;
41572;SDS011;27286;47.870;19.006;2023-02-11T13:35:40;29.38;;;23.17;;
41572;SDS011;27286;47.870;19.006;2023-02-11T13:38:34;40.63;;;28.55;;
41572;SDS011;27286;47.870;19.006;2023-02-11T13:44:00;33.97;;;25.20;;
41572;SDS011;27286;47.870;19.006;2023-02-11T13:46:26;30.17;;;22.42;;
41572;SDS011;27286;47.870;19.006;2023-02-11T13:49:19;34.47;;;21.85;;
41572;SDS011;27286;47.870;19.006;2023-02-11T13:51:48;34.15;;;22.60;;
41572;SDS011;27286;47.870;19.006;2023-02-11T13:54:22;38.60;;;24.40;;
41572;SDS011;27286;47.870;19.006;2023-02-11T14:10:51;39.28;;;25.38;;
41572;SDS011;27286;47.870;19.006;2023-02-11T14:13:35;37.50;;;23.10;;
41572;SDS011;27286;47.870;19.006;2023-02-11T14:16:21;41.92;;;26.98;;
41572;SDS011;27286;47.870;19.006;2023-02-11T14:21:18;45.38;;;22.38;;
41572;SDS011;27286;47.870;19.006;2023-02-11T14:23:47;33.95;;;22.05;;
41572;SDS011;27286;47.870;19.006;2023-02-11T14:31:42;29.55;;;19.98;;
41572;SDS011;27286;47.870;19.006;2023-02-11T14:34:25;34.03;;;21.17;;
41572;SDS011;27286;47.870;19.006;2023-02-11T14:42:24;27.48;;;18.55;;
41572;SDS011;27286;47.870;19.006;2023-02-11T14:44:52;30.50;;;18.85;;
41572;SDS011;27286;47.870;19.006;2023-02-11T14:47:27;29.77;;;20.70;;
41572;SDS011;27286;47.870;19.006;2023-02-11T14:49:59;28.52;;;19.38;;
41572;SDS011;27286;47.870;19.006;2023-02-11T14:52:29;31.92;;;19.88;;
41572;SDS011;27286;47.870;19.006;2023-02-11T14:58:05;38.63;;;23.00;;
41572;SDS011;27286;47.870;19.006;2023-02-11T15:03:46;34.30;;;22.25;;
41572;SDS011;27286;47.870;19.006;2023-02-11T15:06:15;34.35;;;20.63;;
41572;SDS011;27286;47.870;19.006;2023-02-11T15:08:48;41.88;;;22.40;;
41572;SDS011;27286;47.870;19.006;2023-02-11T15:11:18;36.45;;;22.33;;
41572;SDS011;27286;47.870;19.006;2023-02-11T15:13:47;38.72;;;22.23;;
41572;SDS011;27286;47.870;19.006;2023-02-11T15:16:19;32.22;;;20.02;;
41572;SDS011;27286;47.870;19.006;2023-02-11T15:18:52;30.95;;;20.92;;
41572;SDS011;27286;47.870;19.006;2023-02-11T15:21:24;40.65;;;23.67;;
41572;SDS011;27286;47.870;19.006;2023-02-11T15:26:57;36.53;;;22.77;;
41572;SDS011;27286;47.870;19.006;2023-02-11T15:29:36;45.92;;;26.02;;
41572;SDS011;27286;47.870;19.006;2023-02-11T15:32:11;39.08;;;22.88;;
41572;SDS011;27286;47.870;19.006;2023-02-11T15:34:38;38.80;;;22.95;;
41572;SDS011;27286;47.870;19.006;2023-02-11T15:37:04;36.00;;;21.83;;
41572;SDS011;27286;47.870;19.006;2023-02-11T15:39:37;41.53;;;25.02;;
41572;SDS011;27286;47.870;19.006;2023-02-11T15:47:40;41.55;;;26.05;;
41572;SDS011;27286;47.870;19.006;2023-02-11T15:50:31;39.67;;;25.02;;
41572;SDS011;27286;47.870;19.006;2023-02-11T15:53:02;44.03;;;25.70;;
41572;SDS011;27286;47.870;19.006;2023-02-11T15:55:48;42.53;;;26.88;;
41572;SDS011;27286;47.870;19.006;2023-02-11T15:58:16;51.38;;;27.50;;
41572;SDS011;27286;47.870;19.006;2023-02-11T16:00:45;55.83;;;26.90;;
41572;SDS011;27286;47.870;19.006;2023-02-11T16:03:27;43.45;;;26.95;;
41572;SDS011;27286;47.870;19.006;2023-02-11T16:05:56;42.10;;;25.42;;
41572;SDS011;27286;47.870;19.006;2023-02-11T16:08:40;47.95;;;27.65;;
41572;SDS011;27286;47.870;19.006;2023-02-11T16:13:55;34.75;;;22.02;;
41572;SDS011;27286;47.870;19.006;2023-02-11T16:16:23;41.85;;;25.35;;
41572;SDS011;27286;47.870;19.006;2023-02-11T16:18:56;35.83;;;22.30;;
41572;SDS011;27286;47.870;19.006;2023-02-11T16:21:34;36.75;;;23.13;;
41572;SDS011;27286;47.870;19.006;2023-02-11T16:24:03;36.03;;;22.42;;
41572;SDS011;27286;47.870;19.006;2023-02-11T16:29:17;44.53;;;26.55;;
41572;SDS011;27286;47.870;19.006;2023-02-11T16:31:50;48.17;;;29.15;;
41572;SDS011;27286;47.870;19.006;2023-02-11T16:34:18;49.80;;;29.52;;
41572;SDS011;27286;47.870;19.006;2023-02-11T16:36:46;44.38;;;25.27;;
41572;SDS011;27286;47.870;19.006;2023-02-11T16:39:13;41.33;;;22.30;;
41572;SDS011;27286;47.870;19.006;2023-02-11T16:41:41;41.33;;;24.50;;
41572;SDS011;27286;47.870;19.006;2023-02-11T16:44:07;40.22;;;22.67;;
41572;SDS011;27286;47.870;19.006;2023-02-11T16:46:33;42.17;;;25.88;;
41572;SDS011;27286;47.870;19.006;2023-02-11T16:49:20;38.50;;;24.52;;
41572;SDS011;27286;47.870;19.006;2023-02-11T16:51:50;38.72;;;22.05;;
41572;SDS011;27286;47.870;19.006;2023-02-11T16:54:18;42.58;;;24.63;;
41572;SDS011;27286;47.870;19.006;2023-02-11T16:56:44;48.47;;;29.70;;
41572;SDS011;27286;47.870;19.006;2023-02-11T16:59:10;47.88;;;29.58;;
41572;SDS011;27286;47.870;19.006;2023-02-11T17:01:37;45.80;;;28.75;;